Iselin, New Jersey
Current Conditions -  °F | °C
As of 3:15 AM on Tuesday 21 Oct 2014 (Local Time) from KLDJ Reporting Station
Scattered Clouds Scattered Clouds  
Wind Chill: 56°   Ceiling: Unl
Heat Index: 56°   Visibility: 10mi
Dew Point: 47°   Wind: 0mph
Humidity: 74%   Direction: NA
Pressure: 29.94"   Gusts: NA
Location:  40.57°N, 74.32°W
Report Text: KLDJ 210715Z AUTO 00000KT 10SM SCT085 13/09 A2994 RMK AO2 T01320086
Loading
Personal Weather Stations






























Interactive Weather Map New forecast layout! Learn more

10-Day Weather Forecast

Advertisements
Track Severe Weather on mobile